Portada
METAR-TAF:

METAR-TAF

Aeropuertos :

Mécheria, Argelia

latitud: 34-56N, longitud: 000-26W, altitud: 1149 m

Observación

El informe se hizo hace 58 minutos, a las 15:00 UTC
Viento 10 kt del oeste
Temperatura 14°C
Humedad 41%
Presión 1005 hPa
Visibilidad 10 km o más
Escasas nubes a una altura de 3000 ft
Nubes dispersas a una altura de 23300 ft

METAR: DAAY 241500Z 28010KT 9999 FEW030 SCT233 14/01 Q1005

Hora: 16:58 (15:58 UTC)

Pronóstico

El informe se hizo hace 1 hora y 58 minutos, a las 14:00 UTC
Pronóstico válido del 24 a las 15 UTC al 24 a las 24 UTC
Viento 12 kt del noroeste
Visibilidad 10 km o más
Escasas nubes a una altura de 3000 ft
Temporalmente
del 24 a las 15 UTC al 24 a las 18 UTC
Viento 18 kt del oeste

TAF: DAAY 241400Z 2415/2424 32012KT 9999 FEW030 TEMPO 2415/2418 28018KT

Observaciones y pronósticos meteorológicos de más de 4000 aeropuertos (mensajes METAR y TAF).

Los puntos amarillos y rojos representan las estaciones disponibles.

Ponga el ratón en el punto deseado para ver el nombre de la estación.

Haga clic para ver las observaciones y los pronósticos meteorológicos.

Para cambiar el mapa : haga clic en los botones verdes con una cruz de color negro para hacer un zoom, en el botón verde con un guión para alejar o en las flechas verdes para mapas adyacentes.


METAR-TAF: